Taurus — WDF3127 — position and weather

sailwx.info

Track history (hours):
 
Tides and Currents Weather Stations Pressure Air Temp Water Temp Dewpoint Dewpoint Depression Visibility Wind Speed Wind Dir Waves Ship Positions

Taurus

Owner: San Francisco Bay Area Water Emergency Transportation Authority, San Francisco, CA. More information available from US FCC via Universal Licensing System and Coast Guard Vessel Documentation Center.

Last reported at 2017-Jul-22 02:24 UTC. Time now 2017-Jul-23 04:28 UTC.
Position N 37°48' W 122°24'.

Length 35 m.

Type: Passenger vessel. MMSI: 367436230.

Date/timePositionNaut miles runAvg speedWind from/ knotsBaromVisibWave heightAir tempDewpointWater temp
2017-Jul-22 02:24N 37°48' W 122°24'410.7
2017-Jul-22 02:00N 37°48' W 122°19'1 1.2
2017-Jul-22 01:30N 37°47' W 122°18'5 9.0
2017-Jul-22 01:00N 37°48' W 122°24'1 2.5
2017-Jul-22 00:31N 37°48' W 122°22'4 7.7
2017-Jul-22 00:00N 37°48' W 122°17'3 5.1
2017-Jul-21 23:31N 37°48' W 122°20'4 7.1
2017-Jul-21 23:00N 37°49' W 122°25'1 1.9
2017-Jul-21 22:30N 37°48' W 122°24'0 0.0
2017-Jul-21 22:00N 37°48' W 122°24'0 0.0
2017-Jul-21 03:10N 37°48' W 122°24'316.4
2017-Jul-21 03:00N 37°48' W 122°21'2 3.1
2017-Jul-21 02:30N 37°48' W 122°19'816.8
2017-Jul-21 02:01N 37°40' W 122°23'714.2
2017-Jul-21 01:31N 37°44' W 122°15'714.5
2017-Jul-21 01:00N 37°48' W 122°24'5 9.1
2017-Jul-21 00:30N 37°47' W 122°18'1 1.7
2017-Jul-21 00:00N 37°48' W 122°17'714.7
2017-Jul-20 23:31N 37°41' W 122°21'2 3.6
2017-Jul-20 23:00N 37°40' W 122°23'815.8
2017-Jul-20 22:30N 37°48' W 122°24'0 0.8
2017-Jul-20 22:00N 37°48' W 122°24'0 0.0
2017-Jul-20 21:30N 37°48' W 122°24'0 0.0
2017-Jul-20 21:01N 37°48' W 122°24'0 0.0
2017-Jul-20 20:30N 37°48' W 122°24'0 0.0
2017-Jul-20 20:00N 37°48' W 122°24'0 0.0
2017-Jul-20 19:30N 37°48' W 122°24'0 0.0
2017-Jul-20 19:00N 37°48' W 122°24'0 0.0
2017-Jul-20 18:30N 37°48' W 122°24'0 0.1
2017-Jul-20 16:43N 37°48' W 122°24'1 2.7
2017-Jul-20 16:31N 37°48' W 122°23'815.8
2017-Jul-20 16:01N 37°40' W 122°23'815.9
2017-Jul-20 15:31N 37°48' W 122°20'2 4.3
2017-Jul-20 15:00N 37°47' W 122°18'4 3.7
2017-Jul-20 14:01N 37°45' W 122°21'4 7.5
2017-Jul-20 13:30N 37°48' W 122°18'510.1
2017-Jul-20 13:00N 37°48' W 122°24'0 0.0
2017-Jul-20 03:30N 37°48' W 122°24'511.0
2017-Jul-20 03:00N 37°48' W 122°17'3 5.2
2017-Jul-20 02:31N 37°47' W 122°20'815.4
2017-Jul-20 02:01N 37°40' W 122°23'714.3
2017-Jul-20 01:30N 37°44' W 122°15'714.7
2017-Jul-20 01:01N 37°48' W 122°24'5 9.3
2017-Jul-20 00:30N 37°47' W 122°18'0 0.4
2017-Jul-20 00:00N 37°47' W 122°18'714.6
2017-Jul-19 23:31N 37°41' W 122°21'1 2.6
2017-Jul-19 23:01N 37°40' W 122°23'815.8
2017-Jul-19 22:30N 37°48' W 122°24'0 0.9
2017-Jul-19 22:00N 37°48' W 122°24'0 0.0
2017-Jul-19 03:24N 37°48' W 122°24'513.2
2017-Jul-19 03:00N 37°48' W 122°17'3 5.9
2017-Jul-19 02:30N 37°46' W 122°21'713.5
2017-Jul-19 02:01N 37°40' W 122°22'714.0
2017-Jul-19 01:30N 37°44' W 122°15'714.6
2017-Jul-19 01:00N 37°48' W 122°24'5 9.3
2017-Jul-19 00:30N 37°47' W 122°18'1 1.3
2017-Jul-19 00:00N 37°48' W 122°17'714.7
2017-Jul-18 23:30N 37°41' W 122°21'2 3.4
2017-Jul-18 23:00N 37°40' W 122°23'815.7
2017-Jul-18 22:30N 37°48' W 122°24'0 0.9
2017-Jul-18 22:00N 37°48' W 122°24'0 0.0
2017-Jul-18 21:30N 37°48' W 122°24'0 0.0
2017-Jul-18 21:00N 37°48' W 122°24'0 0.0
2017-Jul-18 20:30N 37°48' W 122°24'0 0.0
2017-Jul-18 20:00N 37°48' W 122°24'0 0.0
2017-Jul-18 19:30N 37°48' W 122°24'0 0.0
2017-Jul-18 19:00N 37°48' W 122°24'0 0.0
2017-Jul-18 18:30N 37°48' W 122°24'0 0.0
2017-Jul-18 18:00N 37°48' W 122°24'1 1.7
2017-Jul-18 17:30N 37°49' W 122°25'0 0.0
2017-Jul-18 17:00N 37°49' W 122°25'3 5.2
2017-Jul-18 16:31N 37°47' W 122°22'713.9
2017-Jul-18 16:01N 37°40' W 122°23'917.0
2017-Jul-18 15:30N 37°48' W 122°18'0 0.9
2017-Jul-18 15:01N 37°47' W 122°18'3 2.9
2017-Jul-18 14:01N 37°46' W 122°21'3 6.4
2017-Jul-18 13:31N 37°48' W 122°17'510.1
2017-Jul-18 13:00N 37°48' W 122°24'0 0.0
2017-Jul-18 03:12N 37°48' W 122°24'212.3
2017-Jul-18 03:01N 37°48' W 122°21'2 4.6
2017-Jul-18 02:31N 37°47' W 122°18'816.9
2017-Jul-18 02:00N 37°40' W 122°23'714.2
2017-Jul-18 01:30N 37°44' W 122°15'714.6
2017-Jul-18 01:01N 37°48' W 122°24'5 9.2
2017-Jul-18 00:30N 37°47' W 122°18'1 1.5
2017-Jul-18 00:01N 37°48' W 122°17'714.2
2017-Jul-17 23:31N 37°41' W 122°21'2 4.0
2017-Jul-17 23:00N 37°40' W 122°23'815.9
2017-Jul-17 22:30N 37°48' W 122°23'0 0.9
2017-Jul-17 22:00N 37°48' W 122°24'0 0.0
2017-Jul-17 21:30N 37°48' W 122°24'0 0.0
2017-Jul-17 21:00N 37°48' W 122°24'0 0.0
2017-Jul-17 20:30N 37°48' W 122°24'0 0.0
2017-Jul-17 20:00N 37°48' W 122°24'0 0.0
2017-Jul-17 19:30N 37°48' W 122°24'0 0.0
2017-Jul-17 19:00N 37°48' W 122°24'0 0.0
2017-Jul-17 18:30N 37°48' W 122°24'0 0.0
2017-Jul-17 18:00N 37°48' W 122°24'0 0.0
2017-Jul-17 17:30N 37°48' W 122°24'0 0.0
2017-Jul-17 17:00N 37°48' W 122°24'1 1.5
2017-Jul-17 16:31N 37°48' W 122°23'815.5
2017-Jul-17 16:00N 37°40' W 122°23'816.2
2017-Jul-17 15:31N 37°48' W 122°20'2 4.2
2017-Jul-17 15:00N 37°47' W 122°18'816.9
2017-Jul-17 14:31N 37°40' W 122°22'510.9
2017-Jul-17 14:00N 37°45' W 122°20'3 7.0
2017-Jul-17 13:31N 37°48' W 122°17'510.3
2017-Jul-17 13:00N 37°48' W 122°24'0 0.0
2017-Jul-15 22:20N 37°48' W 122°24'2 6.4
2017-Jul-15 22:01N 37°46' W 122°22'2 3.1
2017-Jul-15 21:31N 37°45' W 122°21'4 7.2
2017-Jul-15 21:00N 37°48' W 122°24'0 0.0
2017-Jul-15 20:30N 37°48' W 122°24'0 0.0
2017-Jul-13 23:01N 37°48' W 122°24'0 0.0
2017-Jul-13 23:00N 37°48' W 122°24'0 0.0
2017-Jul-13 22:30N 37°48' W 122°24'0 0.0
2017-Jul-13 22:00N 37°48' W 122°24'0 0.0
2017-Jul-13 21:30N 37°48' W 122°24'0 0.0
2017-Jul-13 21:00N 37°48' W 122°24'0 0.0
2017-Jul-13 20:30N 37°48' W 122°24'0 0.0
2017-Jul-13 20:00N 37°48' W 122°24'0 0.0
2017-Jul-13 19:30N 37°48' W 122°24'0 0.0
2017-Jul-13 19:00N 37°48' W 122°24'0 0.0
2017-Jul-13 18:30N 37°48' W 122°24'0 0.0
2017-Jul-13 18:00N 37°48' W 122°24'0 0.0
2017-Jul-13 17:30N 37°48' W 122°24'1 1.7
2017-Jul-13 17:01N 37°49' W 122°25'0 0.1
2017-Jul-13 16:30N 37°49' W 122°25'0 0.0
2017-Jul-13 03:29N 37°49' W 122°25'611.6
2017-Jul-13 03:01N 37°48' W 122°18'0 0.8
2017-Jul-13 02:31N 37°48' W 122°18'816.8
2017-Jul-13 02:01N 37°40' W 122°23'714.3
2017-Jul-13 01:30N 37°44' W 122°15'714.6
2017-Jul-13 01:00N 37°48' W 122°24'3 5.8
2017-Jul-13 00:31N 37°48' W 122°20'2 4.8
2017-Jul-13 00:00N 37°48' W 122°17'714.2
2017-Jul-12 23:31N 37°42' W 122°21'2 4.1
2017-Jul-12 23:00N 37°40' W 122°23'815.9
2017-Jul-12 22:31N 37°48' W 122°24'0 0.9
2017-Jul-12 22:00N 37°48' W 122°24'0 0.0
2017-Jul-12 21:30N 37°48' W 122°24'0 0.0
2017-Jul-12 21:00N 37°48' W 122°24'0 0.0
2017-Jul-12 20:30N 37°48' W 122°24'0 0.0
2017-Jul-12 20:00N 37°48' W 122°24'0 0.0
2017-Jul-12 19:30N 37°48' W 122°24'0 0.0
2017-Jul-12 19:00N 37°48' W 122°24'0 0.0
2017-Jul-12 18:30N 37°48' W 122°24'0 0.0
2017-Jul-12 18:00N 37°48' W 122°24'0 0.0
2017-Jul-12 17:30N 37°48' W 122°24'0 0.0
2017-Jul-12 17:00N 37°48' W 122°24'2 4.0
2017-Jul-12 16:31N 37°47' W 122°22'713.4
2017-Jul-12 16:01N 37°40' W 122°23'917.1
2017-Jul-12 15:30N 37°48' W 122°18'0 0.8
2017-Jul-12 15:01N 37°48' W 122°18'2 1.9
2017-Jul-12 14:01N 37°47' W 122°21'3 5.3
2017-Jul-12 13:31N 37°48' W 122°17'510.0
2017-Jul-12 13:00N 37°48' W 122°24'0 0.0
2017-Jul-12 03:12N 37°48' W 122°24'315.3
2017-Jul-12 03:01N 37°48' W 122°20'1 2.9
2017-Jul-12 02:31N 37°48' W 122°19'  
Track history (hours):
 
Tides and Currents Weather Stations Pressure Air Temp Water Temp Dewpoint Dewpoint Depression Visibility Wind Speed Wind Dir Waves Ship Positions

Taurus

Owner: San Francisco Bay Area Water Emergency Transportation Authority, San Francisco, CA. More information available from US FCC via Universal Licensing System and Coast Guard Vessel Documentation Center.

Last reported at 2017-Jul-22 02:24 UTC. Time now 2017-Jul-23 04:28 UTC.
Position N 37°48' W 122°24'.

Length 35 m.

Type: Passenger vessel. MMSI: 367436230.

Date/timePositionNaut miles runAvg speedWind from/ knotsBaromVisibWave heightAir tempDewpointWater temp
2017-Jul-22 02:24N 37°48' W 122°24'410.7
2017-Jul-22 02:00N 37°48' W 122°19'1 1.2
2017-Jul-22 01:30N 37°47' W 122°18'5 9.0
2017-Jul-22 01:00N 37°48' W 122°24'1 2.5
2017-Jul-22 00:31N 37°48' W 122°22'4 7.7
2017-Jul-22 00:00N 37°48' W 122°17'3 5.1
2017-Jul-21 23:31N 37°48' W 122°20'4 7.1
2017-Jul-21 23:00N 37°49' W 122°25'1 1.9
2017-Jul-21 22:30N 37°48' W 122°24'0 0.0
2017-Jul-21 22:00N 37°48' W 122°24'0 0.0
2017-Jul-21 03:10N 37°48' W 122°24'316.4
2017-Jul-21 03:00N 37°48' W 122°21'2 3.1
2017-Jul-21 02:30N 37°48' W 122°19'816.8
2017-Jul-21 02:01N 37°40' W 122°23'714.2
2017-Jul-21 01:31N 37°44' W 122°15'714.5
2017-Jul-21 01:00N 37°48' W 122°24'5 9.1
2017-Jul-21 00:30N 37°47' W 122°18'1 1.7
2017-Jul-21 00:00N 37°48' W 122°17'714.7
2017-Jul-20 23:31N 37°41' W 122°21'2 3.6
2017-Jul-20 23:00N 37°40' W 122°23'815.8
2017-Jul-20 22:30N 37°48' W 122°24'0 0.8
2017-Jul-20 22:00N 37°48' W 122°24'0 0.0
2017-Jul-20 21:30N 37°48' W 122°24'0 0.0
2017-Jul-20 21:01N 37°48' W 122°24'0 0.0
2017-Jul-20 20:30N 37°48' W 122°24'0 0.0
2017-Jul-20 20:00N 37°48' W 122°24'0 0.0
2017-Jul-20 19:30N 37°48' W 122°24'0 0.0
2017-Jul-20 19:00N 37°48' W 122°24'0 0.0
2017-Jul-20 18:30N 37°48' W 122°24'0 0.1
2017-Jul-20 16:43N 37°48' W 122°24'1 2.7
2017-Jul-20 16:31N 37°48' W 122°23'815.8
2017-Jul-20 16:01N 37°40' W 122°23'815.9
2017-Jul-20 15:31N 37°48' W 122°20'2 4.3
2017-Jul-20 15:00N 37°47' W 122°18'4 3.7
2017-Jul-20 14:01N 37°45' W 122°21'4 7.5
2017-Jul-20 13:30N 37°48' W 122°18'510.1
2017-Jul-20 13:00N 37°48' W 122°24'0 0.0
2017-Jul-20 03:30N 37°48' W 122°24'511.0
2017-Jul-20 03:00N 37°48' W 122°17'3 5.2
2017-Jul-20 02:31N 37°47' W 122°20'815.4
2017-Jul-20 02:01N 37°40' W 122°23'714.3
2017-Jul-20 01:30N 37°44' W 122°15'714.7
2017-Jul-20 01:01N 37°48' W 122°24'5 9.3
2017-Jul-20 00:30N 37°47' W 122°18'0 0.4
2017-Jul-20 00:00N 37°47' W 122°18'714.6
2017-Jul-19 23:31N 37°41' W 122°21'1 2.6
2017-Jul-19 23:01N 37°40' W 122°23'815.8
2017-Jul-19 22:30N 37°48' W 122°24'0 0.9
2017-Jul-19 22:00N 37°48' W 122°24'0 0.0
2017-Jul-19 03:24N 37°48' W 122°24'513.2
2017-Jul-19 03:00N 37°48' W 122°17'3 5.9
2017-Jul-19 02:30N 37°46' W 122°21'713.5
2017-Jul-19 02:01N 37°40' W 122°22'714.0
2017-Jul-19 01:30N 37°44' W 122°15'714.6
2017-Jul-19 01:00N 37°48' W 122°24'5 9.3
2017-Jul-19 00:30N 37°47' W 122°18'1 1.3
2017-Jul-19 00:00N 37°48' W 122°17'714.7
2017-Jul-18 23:30N 37°41' W 122°21'2 3.4
2017-Jul-18 23:00N 37°40' W 122°23'815.7
2017-Jul-18 22:30N 37°48' W 122°24'0 0.9
2017-Jul-18 22:00N 37°48' W 122°24'0 0.0
2017-Jul-18 21:30N 37°48' W 122°24'0 0.0
2017-Jul-18 21:00N 37°48' W 122°24'0 0.0
2017-Jul-18 20:30N 37°48' W 122°24'0 0.0
2017-Jul-18 20:00N 37°48' W 122°24'0 0.0
2017-Jul-18 19:30N 37°48' W 122°24'0 0.0
2017-Jul-18 19:00N 37°48' W 122°24'0 0.0
2017-Jul-18 18:30N 37°48' W 122°24'0 0.0
2017-Jul-18 18:00N 37°48' W 122°24'1 1.7
2017-Jul-18 17:30N 37°49' W 122°25'0 0.0
2017-Jul-18 17:00N 37°49' W 122°25'3 5.2
2017-Jul-18 16:31N 37°47' W 122°22'713.9
2017-Jul-18 16:01N 37°40' W 122°23'917.0
2017-Jul-18 15:30N 37°48' W 122°18'0 0.9
2017-Jul-18 15:01N 37°47' W 122°18'3 2.9
2017-Jul-18 14:01N 37°46' W 122°21'3 6.4
2017-Jul-18 13:31N 37°48' W 122°17'510.1
2017-Jul-18 13:00N 37°48' W 122°24'0 0.0
2017-Jul-18 03:12N 37°48' W 122°24'212.3
2017-Jul-18 03:01N 37°48' W 122°21'2 4.6
2017-Jul-18 02:31N 37°47' W 122°18'816.9
2017-Jul-18 02:00N 37°40' W 122°23'714.2
2017-Jul-18 01:30N 37°44' W 122°15'714.6
2017-Jul-18 01:01N 37°48' W 122°24'5 9.2
2017-Jul-18 00:30N 37°47' W 122°18'1 1.5
2017-Jul-18 00:01N 37°48' W 122°17'714.2
2017-Jul-17 23:31N 37°41' W 122°21'2 4.0
2017-Jul-17 23:00N 37°40' W 122°23'815.9
2017-Jul-17 22:30N 37°48' W 122°23'0 0.9
2017-Jul-17 22:00N 37°48' W 122°24'0 0.0
2017-Jul-17 21:30N 37°48' W 122°24'0 0.0
2017-Jul-17 21:00N 37°48' W 122°24'0 0.0
2017-Jul-17 20:30N 37°48' W 122°24'0 0.0
2017-Jul-17 20:00N 37°48' W 122°24'0 0.0
2017-Jul-17 19:30N 37°48' W 122°24'0 0.0
2017-Jul-17 19:00N 37°48' W 122°24'0 0.0
2017-Jul-17 18:30N 37°48' W 122°24'0 0.0
2017-Jul-17 18:00N 37°48' W 122°24'0 0.0
2017-Jul-17 17:30N 37°48' W 122°24'0 0.0
2017-Jul-17 17:00N 37°48' W 122°24'1 1.5
2017-Jul-17 16:31N 37°48' W 122°23'815.5
2017-Jul-17 16:00N 37°40' W 122°23'816.2
2017-Jul-17 15:31N 37°48' W 122°20'2 4.2
2017-Jul-17 15:00N 37°47' W 122°18'816.9
2017-Jul-17 14:31N 37°40' W 122°22'510.9
2017-Jul-17 14:00N 37°45' W 122°20'3 7.0
2017-Jul-17 13:31N 37°48' W 122°17'510.3
2017-Jul-17 13:00N 37°48' W 122°24'0 0.0
2017-Jul-15 22:20N 37°48' W 122°24'2 6.4
2017-Jul-15 22:01N 37°46' W 122°22'2 3.1
2017-Jul-15 21:31N 37°45' W 122°21'4 7.2
2017-Jul-15 21:00N 37°48' W 122°24'0 0.0
2017-Jul-15 20:30N 37°48' W 122°24'0 0.0
2017-Jul-13 23:01N 37°48' W 122°24'0 0.0
2017-Jul-13 23:00N 37°48' W 122°24'0 0.0
2017-Jul-13 22:30N 37°48' W 122°24'0 0.0
2017-Jul-13 22:00N 37°48' W 122°24'0 0.0
2017-Jul-13 21:30N 37°48' W 122°24'0 0.0
2017-Jul-13 21:00N 37°48' W 122°24'0 0.0
2017-Jul-13 20:30N 37°48' W 122°24'0 0.0
2017-Jul-13 20:00N 37°48' W 122°24'0 0.0
2017-Jul-13 19:30N 37°48' W 122°24'0 0.0
2017-Jul-13 19:00N 37°48' W 122°24'0 0.0
2017-Jul-13 18:30N 37°48' W 122°24'0 0.0
2017-Jul-13 18:00N 37°48' W 122°24'0 0.0
2017-Jul-13 17:30N 37°48' W 122°24'1 1.7
2017-Jul-13 17:01N 37°49' W 122°25'0 0.1
2017-Jul-13 16:30N 37°49' W 122°25'0 0.0
2017-Jul-13 03:29N 37°49' W 122°25'611.6
2017-Jul-13 03:01N 37°48' W 122°18'0 0.8
2017-Jul-13 02:31N 37°48' W 122°18'816.8
2017-Jul-13 02:01N 37°40' W 122°23'714.3
2017-Jul-13 01:30N 37°44' W 122°15'714.6
2017-Jul-13 01:00N 37°48' W 122°24'3 5.8
2017-Jul-13 00:31N 37°48' W 122°20'2 4.8
2017-Jul-13 00:00N 37°48' W 122°17'714.2
2017-Jul-12 23:31N 37°42' W 122°21'2 4.1
2017-Jul-12 23:00N 37°40' W 122°23'815.9
2017-Jul-12 22:31N 37°48' W 122°24'0 0.9
2017-Jul-12 22:00N 37°48' W 122°24'0 0.0
2017-Jul-12 21:30N 37°48' W 122°24'0 0.0
2017-Jul-12 21:00N 37°48' W 122°24'0 0.0
2017-Jul-12 20:30N 37°48' W 122°24'0 0.0
2017-Jul-12 20:00N 37°48' W 122°24'0 0.0
2017-Jul-12 19:30N 37°48' W 122°24'0 0.0
2017-Jul-12 19:00N 37°48' W 122°24'0 0.0
2017-Jul-12 18:30N 37°48' W 122°24'0 0.0
2017-Jul-12 18:00N 37°48' W 122°24'0 0.0
2017-Jul-12 17:30N 37°48' W 122°24'0 0.0
2017-Jul-12 17:00N 37°48' W 122°24'2 4.0
2017-Jul-12 16:31N 37°47' W 122°22'713.4
2017-Jul-12 16:01N 37°40' W 122°23'917.1
2017-Jul-12 15:30N 37°48' W 122°18'0 0.8
2017-Jul-12 15:01N 37°48' W 122°18'2 1.9
2017-Jul-12 14:01N 37°47' W 122°21'3 5.3
2017-Jul-12 13:31N 37°48' W 122°17'510.0
2017-Jul-12 13:00N 37°48' W 122°24'0 0.0
2017-Jul-12 03:12N 37°48' W 122°24'315.3
2017-Jul-12 03:01N 37°48' W 122°20'1 2.9
2017-Jul-12 02:31N 37°48' W 122°19'  

Dump ship's entire track history